sensor_id;sensor_type;location;lat;lon;timestamp;pressure;altitude;pressure_sealevel;temperature;humidity
17781;BME280;8498;52.516;13.790;2023-03-15T00:03:29;100174.38;;;3.86;77.17
17781;BME280;8498;52.516;13.790;2023-03-15T00:08:52;100191.69;;;3.73;77.45
17781;BME280;8498;52.516;13.790;2023-03-15T00:14:15;100201.84;;;3.61;78.56
17781;BME280;8498;52.516;13.790;2023-03-15T00:19:37;100209.22;;;3.53;79.25
17781;BME280;8498;52.516;13.790;2023-03-15T00:25:00;100221.72;;;3.48;79.92
17781;BME280;8498;52.516;13.790;2023-03-15T00:30:22;100238.47;;;3.46;80.16
17781;BME280;8498;52.516;13.790;2023-03-15T00:35:45;100237.25;;;3.34;80.28
17781;BME280;8498;52.516;13.790;2023-03-15T00:41:10;100250.38;;;3.34;80.63
17781;BME280;8498;52.516;13.790;2023-03-15T00:46:34;100253.06;;;3.32;80.46
17781;BME280;8498;52.516;13.790;2023-03-15T00:51:57;100263.06;;;3.24;80.83
17781;BME280;8498;52.516;13.790;2023-03-15T00:57:20;100269.03;;;3.28;80.94
17781;BME280;8498;52.516;13.790;2023-03-15T01:02:43;100266.94;;;3.16;81.78
17781;BME280;8498;52.516;13.790;2023-03-15T01:08:05;100286.00;;;3.01;82.68
17781;BME280;8498;52.516;13.790;2023-03-15T01:13:28;100284.75;;;2.89;83.65
17781;BME280;8498;52.516;13.790;2023-03-15T01:18:51;100290.19;;;2.84;83.82
17781;BME280;8498;52.516;13.790;2023-03-15T01:24:14;100292.00;;;2.82;84.13
17781;BME280;8498;52.516;13.790;2023-03-15T01:29:39;100292.34;;;2.75;84.27
17781;BME280;8498;52.516;13.790;2023-03-15T01:35:03;100311.44;;;2.78;84.42
17781;BME280;8498;52.516;13.790;2023-03-15T01:40:25;100319.88;;;2.65;84.65
17781;BME280;8498;52.516;13.790;2023-03-15T01:56:56;100328.72;;;2.62;84.50
17781;BME280;8498;52.516;13.790;2023-03-15T02:02:22;100329.84;;;2.56;84.51
17781;BME280;8498;52.516;13.790;2023-03-15T02:07:47;100341.28;;;2.54;84.46
17781;BME280;8498;52.516;13.790;2023-03-15T02:13:20;100345.69;;;2.53;84.49
17781;BME280;8498;52.516;13.790;2023-03-15T02:18:46;100349.31;;;2.49;84.75
17781;BME280;8498;52.516;13.790;2023-03-15T02:29:37;100365.44;;;2.40;84.99
17781;BME280;8498;52.516;13.790;2023-03-15T02:35:00;100372.28;;;2.44;85.11
17781;BME280;8498;52.516;13.790;2023-03-15T02:40:26;100374.03;;;2.44;85.02
17781;BME280;8498;52.516;13.790;2023-03-15T02:45:49;100387.25;;;2.41;84.76
17781;BME280;8498;52.516;13.790;2023-03-15T02:51:23;100384.53;;;2.44;84.65
17781;BME280;8498;52.516;13.790;2023-03-15T02:56:46;100403.03;;;2.39;84.31
17781;BME280;8498;52.516;13.790;2023-03-15T03:02:09;100399.44;;;2.42;84.55
17781;BME280;8498;52.516;13.790;2023-03-15T03:07:35;100403.13;;;2.38;84.41
17781;BME280;8498;52.516;13.790;2023-03-15T03:13:01;100410.78;;;2.42;84.64
17781;BME280;8498;52.516;13.790;2023-03-15T03:18:32;100414.56;;;2.35;84.58
17781;BME280;8498;52.516;13.790;2023-03-15T03:23:58;100424.25;;;2.33;84.42
17781;BME280;8498;52.516;13.790;2023-03-15T03:29:21;100431.25;;;2.33;84.51
17781;BME280;8498;52.516;13.790;2023-03-15T03:34:44;100436.75;;;2.27;84.72
17781;BME280;8498;52.516;13.790;2023-03-15T03:40:13;100441.13;;;2.26;84.93
17781;BME280;8498;52.516;13.790;2023-03-15T03:45:36;100451.72;;;2.23;85.04
17781;BME280;8498;52.516;13.790;2023-03-15T03:51:01;100456.97;;;2.23;84.62
17781;BME280;8498;52.516;13.790;2023-03-15T03:56:23;100472.66;;;2.25;85.06
17781;BME280;8498;52.516;13.790;2023-03-15T04:01:46;100475.47;;;2.18;85.24
17781;BME280;8498;52.516;13.790;2023-03-15T04:07:09;100481.72;;;2.16;85.41
17781;BME280;8498;52.516;13.790;2023-03-15T04:12:34;100493.94;;;2.15;85.91
17781;BME280;8498;52.516;13.790;2023-03-15T04:17:57;100498.16;;;2.19;86.25
17781;BME280;8498;52.516;13.790;2023-03-15T04:23:26;100515.44;;;2.25;86.33
17781;BME280;8498;52.516;13.790;2023-03-15T04:29:09;100511.09;;;2.24;86.68
17781;BME280;8498;52.516;13.790;2023-03-15T04:34:46;100525.41;;;2.15;87.73
17781;BME280;8498;52.516;13.790;2023-03-15T04:40:36;100529.50;;;1.98;88.46
17781;BME280;8498;52.516;13.790;2023-03-15T04:46:11;100538.81;;;1.81;89.74
17781;BME280;8498;52.516;13.790;2023-03-15T04:51:54;100537.28;;;1.76;90.34
17781;BME280;8498;52.516;13.790;2023-03-15T04:57:40;100540.00;;;1.73;89.92
17781;BME280;8498;52.516;13.790;2023-03-15T05:03:26;100548.13;;;1.65;90.37
17781;BME280;8498;52.516;13.790;2023-03-15T05:09:17;100552.53;;;1.63;90.28
17781;BME280;8498;52.516;13.790;2023-03-15T05:15:11;100566.38;;;1.67;89.46
17781;BME280;8498;52.516;13.790;2023-03-15T05:20:52;100578.25;;;1.77;89.31
17781;BME280;8498;52.516;13.790;2023-03-15T05:26:37;100588.63;;;1.80;88.96
17781;BME280;8498;52.516;13.790;2023-03-15T05:32:25;100592.91;;;1.82;88.60
17781;BME280;8498;52.516;13.790;2023-03-15T05:38:12;100603.53;;;1.78;88.38
17781;BME280;8498;52.516;13.790;2023-03-15T05:43:57;100621.97;;;1.75;88.21
17781;BME280;8498;52.516;13.790;2023-03-15T05:49:53;100629.88;;;1.73;88.09
17781;BME280;8498;52.516;13.790;2023-03-15T05:55:30;100639.25;;;1.80;88.20
17781;BME280;8498;52.516;13.790;2023-03-15T06:01:24;100645.00;;;1.92;87.79
17781;BME280;8498;52.516;13.790;2023-03-15T06:07:03;100652.59;;;1.99;88.05
17781;BME280;8498;52.516;13.790;2023-03-15T06:12:27;100660.63;;;2.19;87.90
17781;BME280;8498;52.516;13.790;2023-03-15T06:17:50;100674.03;;;2.37;87.58
17781;BME280;8498;52.516;13.790;2023-03-15T06:23:13;100678.00;;;2.48;87.29
17781;BME280;8498;52.516;13.790;2023-03-15T06:28:40;100682.16;;;2.79;86.66
17781;BME280;8498;52.516;13.790;2023-03-15T06:34:03;100700.56;;;2.77;85.48
17781;BME280;8498;52.516;13.790;2023-03-15T06:39:27;100698.50;;;2.85;85.84
17781;BME280;8498;52.516;13.790;2023-03-15T06:44:50;100708.63;;;2.96;87.27
17781;BME280;8498;52.516;13.790;2023-03-15T06:50:15;100716.31;;;3.47;83.87
17781;BME280;8498;52.516;13.790;2023-03-15T06:55:38;100721.47;;;3.27;83.65
17781;BME280;8498;52.516;13.790;2023-03-15T07:01:01;100721.97;;;3.37;83.65
17781;BME280;8498;52.516;13.790;2023-03-15T07:06:23;100733.09;;;3.43;82.25
17781;BME280;8498;52.516;13.790;2023-03-15T07:11:46;100733.44;;;3.57;81.95
17781;BME280;8498;52.516;13.790;2023-03-15T07:17:08;100742.00;;;3.62;80.82
17781;BME280;8498;52.516;13.790;2023-03-15T07:22:32;100748.41;;;3.55;81.64
17781;BME280;8498;52.516;13.790;2023-03-15T07:27:54;100750.00;;;3.59;82.70
17781;BME280;8498;52.516;13.790;2023-03-15T07:33:17;100751.47;;;3.66;83.49
17781;BME280;8498;52.516;13.790;2023-03-15T07:38:39;100752.81;;;3.77;83.90
17781;BME280;8498;52.516;13.790;2023-03-15T07:44:04;100752.81;;;3.77;84.00
17781;BME280;8498;52.516;13.790;2023-03-15T07:49:27;100752.81;;;3.77;84.17
17781;BME280;8498;52.516;13.790;2023-03-15T07:54:49;100763.88;;;3.85;85.06
17781;BME280;8498;52.516;13.790;2023-03-15T08:00:12;100768.88;;;4.14;84.69
17781;BME280;8498;52.516;13.790;2023-03-15T08:05:36;100777.09;;;4.69;83.27
17781;BME280;8498;52.516;13.790;2023-03-15T08:10:58;100782.34;;;4.69;80.59
17781;BME280;8498;52.516;13.790;2023-03-15T08:16:21;100782.63;;;4.63;80.53
17781;BME280;8498;52.516;13.790;2023-03-15T08:21:44;100789.41;;;4.47;80.23
17781;BME280;8498;52.516;13.790;2023-03-15T08:27:06;100788.75;;;4.63;79.58
17781;BME280;8498;52.516;13.790;2023-03-15T08:32:30;100788.53;;;4.68;79.35
17781;BME280;8498;52.516;13.790;2023-03-15T08:37:52;100803.00;;;4.78;78.83
17781;BME280;8498;52.516;13.790;2023-03-15T08:43:15;100808.94;;;4.83;77.75
17781;BME280;8498;52.516;13.790;2023-03-15T08:48:37;100826.00;;;4.95;77.76
17781;BME280;8498;52.516;13.790;2023-03-15T08:54:00;100827.84;;;4.93;77.11
17781;BME280;8498;52.516;13.790;2023-03-15T08:59:24;100835.69;;;5.14;76.46
17781;BME280;8498;52.516;13.790;2023-03-15T09:04:53;100841.28;;;5.27;75.00
17781;BME280;8498;52.516;13.790;2023-03-15T09:10:16;100856.34;;;5.24;73.81
17781;BME280;8498;52.516;13.790;2023-03-15T09:15:38;100871.56;;;5.37;72.97
17781;BME280;8498;52.516;13.790;2023-03-15T09:21:01;100867.91;;;5.40;71.37
17781;BME280;8498;52.516;13.790;2023-03-15T09:26:24;100875.69;;;5.43;70.70
17781;BME280;8498;52.516;13.790;2023-03-15T09:31:46;100893.09;;;5.47;70.76
17781;BME280;8498;52.516;13.790;2023-03-15T09:37:08;100892.09;;;5.49;70.90
17781;BME280;8498;52.516;13.790;2023-03-15T09:48:39;100900.34;;;6.01;69.81
17781;BME280;8498;52.516;13.790;2023-03-15T09:54:18;100915.72;;;5.71;68.97
17781;BME280;8498;52.516;13.790;2023-03-15T09:59:45;100911.09;;;5.97;69.72
17781;BME280;8498;52.516;13.790;2023-03-15T10:05:19;100917.47;;;6.11;69.93
17781;BME280;8498;52.516;13.790;2023-03-15T10:11:06;100931.72;;;6.63;67.93
17781;BME280;8498;52.516;13.790;2023-03-15T10:16:38;100942.09;;;6.67;65.90
17781;BME280;8498;52.516;13.790;2023-03-15T10:27:53;100942.75;;;7.08;64.55
17781;BME280;8498;52.516;13.790;2023-03-15T10:33:24;100944.56;;;7.24;61.37
17781;BME280;8498;52.516;13.790;2023-03-15T10:38:48;100950.31;;;8.33;59.16
17781;BME280;8498;52.516;13.790;2023-03-15T10:44:21;100942.81;;;8.72;55.22
17781;BME280;8498;52.516;13.790;2023-03-15T10:49:44;100951.09;;;8.35;54.22
17781;BME280;8498;52.516;13.790;2023-03-15T10:55:13;100940.25;;;8.87;53.67
17781;BME280;8498;52.516;13.790;2023-03-15T11:00:37;100949.34;;;9.86;51.86
17781;BME280;8498;52.516;13.790;2023-03-15T11:06:00;100957.75;;;9.05;52.57
17781;BME280;8498;52.516;13.790;2023-03-15T11:11:22;100951.63;;;7.76;55.72
17781;BME280;8498;52.516;13.790;2023-03-15T11:16:54;100958.78;;;7.39;57.30
17781;BME280;8498;52.516;13.790;2023-03-15T11:22:16;100954.78;;;8.64;54.15
17781;BME280;8498;52.516;13.790;2023-03-15T11:27:39;100957.00;;;9.77;51.38
17781;BME280;8498;52.516;13.790;2023-03-15T11:33:06;100956.41;;;10.30;49.87
17781;BME280;8498;52.516;13.790;2023-03-15T11:38:38;100963.16;;;10.36;48.94
17781;BME280;8498;52.516;13.790;2023-03-15T11:44:12;100971.91;;;11.06;47.79
17781;BME280;8498;52.516;13.790;2023-03-15T11:49:54;100954.00;;;10.95;46.03
17781;BME280;8498;52.516;13.790;2023-03-15T11:55:25;100960.06;;;10.97;47.26
17781;BME280;8498;52.516;13.790;2023-03-15T12:00:50;100968.91;;;10.14;47.78
17781;BME280;8498;52.516;13.790;2023-03-15T12:11:41;100974.50;;;9.95;50.35
17781;BME280;8498;52.516;13.790;2023-03-15T12:28:49;100964.31;;;9.87;47.72
17781;BME280;8498;52.516;13.790;2023-03-15T12:34:22;100981.88;;;8.84;50.67
17781;BME280;8498;52.516;13.790;2023-03-15T12:39:48;100980.25;;;8.66;49.37
17781;BME280;8498;52.516;13.790;2023-03-15T12:56:43;100991.09;;;9.69;48.77
17781;BME280;8498;52.516;13.790;2023-03-15T13:02:34;100991.72;;;11.14;44.95
17781;BME280;8498;52.516;13.790;2023-03-15T13:08:22;100996.22;;;12.18;42.91
17781;BME280;8498;52.516;13.790;2023-03-15T13:19:18;100983.81;;;12.55;40.47
17781;BME280;8498;52.516;13.790;2023-03-15T13:30:36;101010.91;;;10.78;43.81
17781;BME280;8498;52.516;13.790;2023-03-15T13:36:02;101006.72;;;9.59;45.53
17781;BME280;8498;52.516;13.790;2023-03-15T13:41:26;101011.69;;;9.04;47.50
17781;BME280;8498;52.516;13.790;2023-03-15T13:46:52;101010.97;;;9.32;46.27
17781;BME280;8498;52.516;13.790;2023-03-15T13:52:16;101015.63;;;9.58;43.40
17781;BME280;8498;52.516;13.790;2023-03-15T13:57:39;101012.22;;;10.85;40.28
17781;BME280;8498;52.516;13.790;2023-03-15T14:03:05;101013.41;;;10.67;38.54
17781;BME280;8498;52.516;13.790;2023-03-15T14:08:30;101016.34;;;9.90;40.07
17781;BME280;8498;52.516;13.790;2023-03-15T14:13:59;101027.66;;;9.34;41.77
17781;BME280;8498;52.516;13.790;2023-03-15T14:19:30;101033.59;;;8.92;43.16
17781;BME280;8498;52.516;13.790;2023-03-15T14:24:53;101071.13;;;8.51;49.22
17781;BME280;8498;52.516;13.790;2023-03-15T14:30:26;101096.50;;;7.69;61.14
17781;BME280;8498;52.516;13.790;2023-03-15T14:35:56;101100.97;;;6.95;68.13
17781;BME280;8498;52.516;13.790;2023-03-15T14:46:52;101072.25;;;7.78;67.12
17781;BME280;8498;52.516;13.790;2023-03-15T14:52:15;101072.63;;;8.05;63.66
17781;BME280;8498;52.516;13.790;2023-03-15T14:57:38;101065.84;;;8.17;63.93
17781;BME280;8498;52.516;13.790;2023-03-15T15:03:01;101051.69;;;8.35;61.63
17781;BME280;8498;52.516;13.790;2023-03-15T15:08:24;101052.84;;;8.46;60.67
17781;BME280;8498;52.516;13.790;2023-03-15T15:13:46;101058.91;;;8.31;59.86
17781;BME280;8498;52.516;13.790;2023-03-15T15:19:09;101067.00;;;8.11;60.01
17781;BME280;8498;52.516;13.790;2023-03-15T15:24:32;101060.56;;;8.17;58.96
17781;BME280;8498;52.516;13.790;2023-03-15T15:29:55;101071.72;;;8.06;58.96
17781;BME280;8498;52.516;13.790;2023-03-15T15:35:19;101065.19;;;7.96;58.58
17781;BME280;8498;52.516;13.790;2023-03-15T15:40:41;101066.19;;;7.93;57.60
17781;BME280;8498;52.516;13.790;2023-03-15T15:46:04;101068.81;;;8.10;49.95
17781;BME280;8498;52.516;13.790;2023-03-15T15:51:35;101074.31;;;8.23;48.91
17781;BME280;8498;52.516;13.790;2023-03-15T15:57:00;101076.81;;;8.26;47.72
17781;BME280;8498;52.516;13.790;2023-03-15T16:02:22;101079.09;;;8.17;47.79
17781;BME280;8498;52.516;13.790;2023-03-15T16:07:45;101086.25;;;8.15;48.55
17781;BME280;8498;52.516;13.790;2023-03-15T16:13:09;101092.50;;;7.96;49.02
17781;BME280;8498;52.516;13.790;2023-03-15T16:18:33;101105.41;;;7.85;48.22
17781;BME280;8498;52.516;13.790;2023-03-15T16:24:00;101123.25;;;7.80;48.67
17781;BME280;8498;52.516;13.790;2023-03-15T16:29:26;101118.22;;;7.76;48.96
17781;BME280;8498;52.516;13.790;2023-03-15T16:34:52;101142.03;;;7.76;48.37
17781;BME280;8498;52.516;13.790;2023-03-15T16:40:23;101139.59;;;7.71;48.66
17781;BME280;8498;52.516;13.790;2023-03-15T16:45:46;101155.91;;;7.62;49.01
17781;BME280;8498;52.516;13.790;2023-03-15T16:51:12;101189.00;;;7.14;56.07
17781;BME280;8498;52.516;13.790;2023-03-15T16:56:36;101189.78;;;6.77;62.42
17781;BME280;8498;52.516;13.790;2023-03-15T17:01:58;101207.63;;;6.32;66.70
17781;BME280;8498;52.516;13.790;2023-03-15T17:07:26;101203.44;;;6.06;68.54
17781;BME280;8498;52.516;13.790;2023-03-15T17:12:51;101217.06;;;5.95;68.34
17781;BME280;8498;52.516;13.790;2023-03-15T17:18:16;101208.34;;;5.93;67.71
17781;BME280;8498;52.516;13.790;2023-03-15T17:23:39;101229.16;;;5.77;68.04
17781;BME280;8498;52.516;13.790;2023-03-15T17:29:02;101238.34;;;5.67;69.10
17781;BME280;8498;52.516;13.790;2023-03-15T17:34:25;101252.84;;;5.56;70.25
17781;BME280;8498;52.516;13.790;2023-03-15T17:39:47;101255.09;;;5.43;71.09
17781;BME280;8498;52.516;13.790;2023-03-15T17:45:19;101261.81;;;5.28;71.85
17781;BME280;8498;52.516;13.790;2023-03-15T17:50:44;101265.91;;;5.12;72.73
17781;BME280;8498;52.516;13.790;2023-03-15T17:56:06;101269.13;;;5.67;77.39
17781;BME280;8498;52.516;13.790;2023-03-15T18:01:30;101275.66;;;5.33;73.72
17781;BME280;8498;52.516;13.790;2023-03-15T18:06:53;101280.03;;;5.09;74.28
17781;BME280;8498;52.516;13.790;2023-03-15T18:12:16;101284.00;;;4.98;74.48
17781;BME280;8498;52.516;13.790;2023-03-15T18:17:41;101297.63;;;4.84;75.12
17781;BME280;8498;52.516;13.790;2023-03-15T18:23:04;101302.13;;;4.80;75.55
17781;BME280;8498;52.516;13.790;2023-03-15T18:28:27;101311.16;;;4.73;75.97
17781;BME280;8498;52.516;13.790;2023-03-15T18:33:51;101309.66;;;4.66;76.63
17781;BME280;8498;52.516;13.790;2023-03-15T18:39:13;101312.28;;;4.66;76.41
17781;BME280;8498;52.516;13.790;2023-03-15T18:44:36;101328.31;;;4.59;76.71
17781;BME280;8498;52.516;13.790;2023-03-15T18:49:58;101327.72;;;4.51;77.14
17781;BME280;8498;52.516;13.790;2023-03-15T18:55:31;101334.09;;;4.43;77.07
17781;BME280;8498;52.516;13.790;2023-03-15T19:00:54;101341.72;;;4.51;76.63
17781;BME280;8498;52.516;13.790;2023-03-15T19:06:17;101342.50;;;4.55;75.66
17781;BME280;8498;52.516;13.790;2023-03-15T19:11:39;101357.59;;;4.48;75.55
17781;BME280;8498;52.516;13.790;2023-03-15T19:17:04;101348.81;;;4.49;75.95
17781;BME280;8498;52.516;13.790;2023-03-15T19:22:27;101361.38;;;4.39;75.85
17781;BME280;8498;52.516;13.790;2023-03-15T19:27:52;101369.38;;;4.36;76.29
17781;BME280;8498;52.516;13.790;2023-03-15T19:33:15;101367.75;;;4.32;76.64
17781;BME280;8498;52.516;13.790;2023-03-15T19:38:37;101359.88;;;4.32;77.03
17781;BME280;8498;52.516;13.790;2023-03-15T19:44:00;101375.31;;;4.15;77.40
17781;BME280;8498;52.516;13.790;2023-03-15T19:49:22;101386.56;;;3.91;78.45
17781;BME280;8498;52.516;13.790;2023-03-15T19:54:45;101380.59;;;3.84;78.97
17781;BME280;8498;52.516;13.790;2023-03-15T20:00:18;101384.38;;;3.76;79.44
17781;BME280;8498;52.516;13.790;2023-03-15T20:05:41;101395.53;;;3.84;79.70
17781;BME280;8498;52.516;13.790;2023-03-15T20:11:05;101399.53;;;3.66;79.63
17781;BME280;8498;52.516;13.790;2023-03-15T20:16:31;101414.13;;;3.45;81.39
17781;BME280;8498;52.516;13.790;2023-03-15T20:21:53;101423.16;;;3.35;81.15
17781;BME280;8498;52.516;13.790;2023-03-15T20:27:16;101433.44;;;3.10;82.10
17781;BME280;8498;52.516;13.790;2023-03-15T20:32:39;101431.34;;;2.89;82.58
17781;BME280;8498;52.516;13.790;2023-03-15T20:38:02;101437.00;;;2.72;83.84
17781;BME280;8498;52.516;13.790;2023-03-15T20:43:28;101441.75;;;2.56;84.04
17781;BME280;8498;52.516;13.790;2023-03-15T20:48:50;101442.19;;;2.37;84.94
17781;BME280;8498;52.516;13.790;2023-03-15T20:54:16;101462.66;;;2.19;85.64
17781;BME280;8498;52.516;13.790;2023-03-15T20:59:38;101462.81;;;2.13;85.99
17781;BME280;8498;52.516;13.790;2023-03-15T21:05:01;101455.16;;;2.03;86.18
17781;BME280;8498;52.516;13.790;2023-03-15T21:10:24;101458.88;;;1.91;86.38
17781;BME280;8498;52.516;13.790;2023-03-15T21:15:47;101457.28;;;1.84;86.43
17781;BME280;8498;52.516;13.790;2023-03-15T21:21:11;101463.47;;;1.80;86.75
17781;BME280;8498;52.516;13.790;2023-03-15T21:26:33;101467.16;;;1.70;87.80
17781;BME280;8498;52.516;13.790;2023-03-15T21:31:56;101470.66;;;1.69;87.29
17781;BME280;8498;52.516;13.790;2023-03-15T21:37:20;101484.75;;;1.65;87.24
17781;BME280;8498;52.516;13.790;2023-03-15T21:42:42;101489.22;;;1.58;87.00
17781;BME280;8498;52.516;13.790;2023-03-15T21:48:06;101485.63;;;1.64;87.80
17781;BME280;8498;52.516;13.790;2023-03-15T21:53:30;101495.47;;;1.50;87.32
17781;BME280;8498;52.516;13.790;2023-03-15T21:58:54;101493.91;;;1.39;88.33
17781;BME280;8498;52.516;13.790;2023-03-15T22:04:17;101499.16;;;1.38;88.03
17781;BME280;8498;52.516;13.790;2023-03-15T22:09:39;101498.44;;;1.31;88.03
17781;BME280;8498;52.516;13.790;2023-03-15T22:15:04;101502.84;;;1.26;88.44
17781;BME280;8498;52.516;13.790;2023-03-15T22:20:30;101501.25;;;1.19;89.01
17781;BME280;8498;52.516;13.790;2023-03-15T22:25:53;101502.97;;;1.20;88.41
17781;BME280;8498;52.516;13.790;2023-03-15T22:31:16;101513.59;;;1.11;88.03
17781;BME280;8498;52.516;13.790;2023-03-15T22:36:39;101517.97;;;1.10;88.07
17781;BME280;8498;52.516;13.790;2023-03-15T22:42:03;101528.44;;;1.10;88.83
17781;BME280;8498;52.516;13.790;2023-03-15T22:47:26;101531.22;;;1.00;88.82
17781;BME280;8498;52.516;13.790;2023-03-15T22:52:48;101534.72;;;0.97;88.50
17781;BME280;8498;52.516;13.790;2023-03-15T22:58:12;101529.38;;;1.05;88.03
17781;BME280;8498;52.516;13.790;2023-03-15T23:03:35;101539.91;;;1.02;89.15
17781;BME280;8498;52.516;13.790;2023-03-15T23:08:57;101543.34;;;1.04;87.97
17781;BME280;8498;52.516;13.790;2023-03-15T23:14:20;101558.38;;;0.91;88.70
17781;BME280;8498;52.516;13.790;2023-03-15T23:19:42;101561.03;;;0.87;89.38
17781;BME280;8498;52.516;13.790;2023-03-15T23:25:05;101558.47;;;0.84;89.23
17781;BME280;8498;52.516;13.790;2023-03-15T23:30:29;101559.31;;;0.86;89.19
17781;BME280;8498;52.516;13.790;2023-03-15T23:35:57;101568.03;;;0.86;89.20
17781;BME280;8498;52.516;13.790;2023-03-15T23:41:20;101558.56;;;0.78;88.81
17781;BME280;8498;52.516;13.790;2023-03-15T23:46:42;101563.03;;;0.69;89.62
17781;BME280;8498;52.516;13.790;2023-03-15T23:52:05;101566.50;;;0.71;89.44
17781;BME280;8498;52.516;13.790;2023-03-15T23:57:27;101570.03;;;0.67;89.43
